Time;durP1;ratioP1;P1;durP2;ratioP2;P2;SDS_P1;SDS_P2;PMS_P1;PMS_P2;Temp;Humidity;BMP_temperature;BMP_pressure;BME280_temperature;BME280_humidity;BME280_pressure;Samples;Min_cycle;Max_cycle;Signal;HPM_P1;HPM_P2
2023/03/21 00:01:52;;;;;;;;;;;;;;;;;;5003339;28;19932;-60
2023/03/21 00:04:18;;;;;;;;;;;;;;;;;;5004024;28;19996;-60
2023/03/21 00:06:44;;;;;;;;;;;;;;;;;;5004644;28;19995;-60
2023/03/21 00:09:11;;;;;;;;;;;;;;;;;;5001379;28;19933;-61
2023/03/21 00:11:37;;;;;;;;;;;;;;;;;;5004971;28;19929;-61
2023/03/21 00:14:03;;;;;;;;;;;;;;;;;;5002672;28;19957;-60
2023/03/21 00:16:30;;;;;;;;;;;;;;;;;;5003949;28;19934;-60
2023/03/21 00:18:56;;;;;;;;;;;;;;;;;;5003741;28;19975;-60
2023/03/21 00:21:27;;;;;;;;;;;;;;;;;;5000371;28;19976;-60
2023/03/21 00:23:53;;;;;;;;;;;;;;;;;;5003558;28;19929;-60
2023/03/21 00:26:19;;;;;;;;;;;;;;;;;;5004129;28;19932;-60
2023/03/21 00:28:45;;;;;;;;;;;;;;;;;;5004683;28;19934;-60
2023/03/21 00:31:11;;;;;;;;;;;;;;;;;;5003744;28;19978;-60
2023/03/21 00:33:38;;;;;;;;;;;;;;;;;;5003613;28;19933;-60
2023/03/21 00:36:04;;;;;;;;;;;;;;;;;;5004728;28;19926;-58
2023/03/21 00:38:30;;;;;;;;;;;;;;;;;;5003479;28;20020;-60
2023/03/21 00:40:56;;;;;;;;;;;;;;;;;;5004457;28;20084;-60
2023/03/21 00:43:28;;;;;;;;;;;;;;;;;;5001974;28;20432;-61
2023/03/21 00:45:54;;;;;;;;;;;;;;;;;;5004110;28;19930;-60
2023/03/21 00:48:20;;;;;;;;;;;;;;;;;;5003978;28;19947;-61
2023/03/21 00:50:46;;;;;;;;;;;;;;;;;;5002713;28;20387;-60
2023/03/21 00:53:13;;;;;;;;;;;;;;;;;;5003168;28;19936;-60
2023/03/21 00:55:39;;;;;;;;;;;;;;;;;;5002043;28;19932;-60
2023/03/21 00:58:05;;;;;;;;;;;;;;;;;;5002229;28;19926;-60
2023/03/21 01:00:32;;;;;;;;;;;;;;;;;;5002684;28;20388;-61
2023/03/21 01:03:04;;;;;;;;;;;;;;;;;;5003044;28;19979;-61
2023/03/21 01:08:14;;;;;;;;;;;;;;;;;;5002368;28;19932;-61
2023/03/21 01:10:41;;;;;;;;;;;;;;;;;;5002960;28;19926;-61
2023/03/21 01:13:07;;;;;;;;;;;;;;;;;;5003432;28;19945;-60
2023/03/21 01:15:33;;;;;;;;;;;;;;;;;;5003039;28;19932;-61
2023/03/21 01:17:59;;;;;;;;;;;;;;;;;;5002634;28;19929;-61
2023/03/21 01:20:25;;;;;;;;;;;;;;;;;;5002127;28;19936;-61
2023/03/21 01:22:51;;;;;;;;;;;;;;;;;;5003276;28;19933;-60
2023/03/21 01:25:17;;;;;;;;;;;;;;;;;;5001849;28;19980;-60
2023/03/21 01:27:44;;;;;;;;;;;;;;;;;;5002617;28;20436;-60
2023/03/21 01:30:10;;;;;;;;;;;;;;;;;;5001382;28;19965;-60
2023/03/21 01:32:36;;;;;;;;;;;;;;;;;;5001584;28;19929;-60
2023/03/21 01:35:03;;;;;;;;;;;;;;;;;;5002757;28;20020;-61
2023/03/21 01:37:29;;;;;;;;;;;;;;;;;;5002164;28;20020;-61
2023/03/21 01:39:55;;;;;;;;;;;;;;;;;;5003029;28;19926;-58
2023/03/21 01:42:21;;;;;;;;;;;;;;;;;;5002323;28;20363;-61
2023/03/21 01:44:47;;;;;;;;;;;;;;;;;;5003172;28;19925;-61
2023/03/21 01:47:13;;;;;;;;;;;;;;;;;;5002231;28;19941;-61
2023/03/21 01:49:39;;;;;;;;;;;;;;;;;;5001575;28;19925;-61
2023/03/21 01:52:05;;;;;;;;;;;;;;;;;;5002091;28;20798;-61
2023/03/21 01:54:32;;;;;;;;;;;;;;;;;;5002538;28;20350;-61
2023/03/21 01:56:58;;;;;;;;;;;;;;;;;;5000127;28;19933;-61
2023/03/21 01:59:25;;;;;;;;;;;;;;;;;;5001142;28;20673;-61
2023/03/21 02:01:51;;;;;;;;;;;;;;;;;;5001528;28;19925;-61
2023/03/21 02:04:20;;;;;;;;;;;;;;;;;;5001937;28;20383;-60
2023/03/21 02:06:46;;;;;;;;;;;;;;;;;;5000757;28;20364;-61
2023/03/21 02:09:12;;;;;;;;;;;;;;;;;;5001242;28;19925;-61
2023/03/21 02:11:38;;;;;;;;;;;;;;;;;;5001209;28;19972;-60
2023/03/21 02:14:05;;;;;;;;;;;;;;;;;;5002363;28;19929;-61
2023/03/21 02:16:31;;;;;;;;;;;;;;;;;;5001387;28;19945;-60
2023/03/21 02:18:57;;;;;;;;;;;;;;;;;;5001821;28;19928;-61
2023/03/21 02:21:23;;;;;;;;;;;;;;;;;;5002295;28;20387;-61
2023/03/21 02:23:49;;;;;;;;;;;;;;;;;;5001315;28;19929;-60
2023/03/21 02:26:15;;;;;;;;;;;;;;;;;;5001291;28;20561;-61
2023/03/21 02:28:41;;;;;;;;;;;;;;;;;;5002778;28;19926;-61
2023/03/21 02:31:07;;;;;;;;;;;;;;;;;;5000930;28;19932;-60
2023/03/21 02:33:33;;;;;;;;;;;;;;;;;;5001508;28;20020;-61
2023/03/21 02:35:59;;;;;;;;;;;;;;;;;;5002753;28;20004;-61
2023/03/21 02:38:26;;;;;;;;;;;;;;;;;;5000279;28;19930;-61
2023/03/21 02:40:52;;;;;;;;;;;;;;;;;;5002981;28;19926;-61
2023/03/21 02:43:18;;;;;;;;;;;;;;;;;;5001440;28;19933;-61
2023/03/21 02:45:44;;;;;;;;;;;;;;;;;;5002103;28;20295;-61
2023/03/21 02:48:10;;;;;;;;;;;;;;;;;;5001295;28;19929;-61
2023/03/21 02:50:36;;;;;;;;;;;;;;;;;;5000644;28;19952;-61
2023/03/21 02:53:02;;;;;;;;;;;;;;;;;;5002424;28;20023;-61
2023/03/21 02:55:29;;;;;;;;;;;;;;;;;;5000661;28;20433;-61
2023/03/21 02:57:55;;;;;;;;;;;;;;;;;;4999165;28;19937;-58
2023/03/21 03:00:21;;;;;;;;;;;;;;;;;;5000619;28;19926;-61
2023/03/21 03:02:49;;;;;;;;;;;;;;;;;;5001368;28;19979;-61
2023/03/21 03:05:18;;;;;;;;;;;;;;;;;;4998344;28;19975;-61
2023/03/21 03:07:48;;;;;;;;;;;;;;;;;;5002278;28;19956;-60
2023/03/21 03:10:14;;;;;;;;;;;;;;;;;;5000077;28;20012;-61
2023/03/21 03:12:40;;;;;;;;;;;;;;;;;;5001294;28;20024;-60
2023/03/21 03:15:06;;;;;;;;;;;;;;;;;;5002013;28;20063;-59
2023/03/21 03:17:32;;;;;;;;;;;;;;;;;;5000551;28;20536;-62
2023/03/21 03:19:58;;;;;;;;;;;;;;;;;;5002095;28;19922;-61
2023/03/21 03:22:24;;;;;;;;;;;;;;;;;;5001077;28;20308;-62
2023/03/21 03:24:50;;;;;;;;;;;;;;;;;;5000474;28;19926;-61
2023/03/21 03:27:16;;;;;;;;;;;;;;;;;;5000545;28;19935;-59
2023/03/21 03:29:42;;;;;;;;;;;;;;;;;;5001457;28;20137;-61
2023/03/21 03:32:08;;;;;;;;;;;;;;;;;;5000494;28;20024;-58
2023/03/21 03:34:38;;;;;;;;;;;;;;;;;;5001209;28;20148;-60
2023/03/21 03:37:04;;;;;;;;;;;;;;;;;;5000480;28;19925;-60
2023/03/21 03:39:30;;;;;;;;;;;;;;;;;;5002360;28;19995;-61
2023/03/21 03:41:56;;;;;;;;;;;;;;;;;;5001129;28;19929;-60
2023/03/21 03:44:22;;;;;;;;;;;;;;;;;;4999072;28;19949;-60
2023/03/21 03:46:48;;;;;;;;;;;;;;;;;;4999041;28;19953;-61
2023/03/21 03:49:14;;;;;;;;;;;;;;;;;;5000869;28;20696;-61
2023/03/21 03:51:40;;;;;;;;;;;;;;;;;;4999359;28;19932;-61
2023/03/21 03:54:06;;;;;;;;;;;;;;;;;;4998456;28;19937;-60
2023/03/21 03:56:32;;;;;;;;;;;;;;;;;;5003103;28;19925;-61
2023/03/21 03:58:59;;;;;;;;;;;;;;;;;;5002357;28;19926;-61
2023/03/21 04:01:25;;;;;;;;;;;;;;;;;;5004691;28;19925;-61
2023/03/21 04:03:51;;;;;;;;;;;;;;;;;;5004818;28;19926;-61
2023/03/21 04:06:17;;;;;;;;;;;;;;;;;;5004162;28;19925;-60
2023/03/21 04:08:43;;;;;;;;;;;;;;;;;;5003525;28;19928;-61
2023/03/21 04:11:09;;;;;;;;;;;;;;;;;;5004325;28;19933;-61
2023/03/21 04:13:35;;;;;;;;;;;;;;;;;;5000972;28;19938;-60
2023/03/21 04:16:02;;;;;;;;;;;;;;;;;;5004404;28;19945;-61
2023/03/21 04:18:28;;;;;;;;;;;;;;;;;;5003261;28;19926;-61
2023/03/21 04:20:55;;;;;;;;;;;;;;;;;;5004051;28;19929;-61
2023/03/21 04:23:22;;;;;;;;;;;;;;;;;;5003342;28;19929;-61
2023/03/21 04:25:49;;;;;;;;;;;;;;;;;;5003562;28;19968;-61
2023/03/21 04:28:15;;;;;;;;;;;;;;;;;;5003561;28;19929;-61
2023/03/21 04:30:41;;;;;;;;;;;;;;;;;;5003177;28;19932;-61
2023/03/21 04:33:11;;;;;;;;;;;;;;;;;;5002972;28;19929;-60
2023/03/21 04:35:44;;;;;;;;;;;;;;;;;;5004050;28;20405;-61
2023/03/21 04:38:17;;;;;;;;;;;;;;;;;;5001049;28;19932;-61
2023/03/21 04:40:50;;;;;;;;;;;;;;;;;;5005162;28;19929;-61
2023/03/21 04:43:23;;;;;;;;;;;;;;;;;;4999628;28;19933;-61
2023/03/21 04:45:55;;;;;;;;;;;;;;;;;;5003495;28;19926;-61
2023/03/21 04:48:29;;;;;;;;;;;;;;;;;;5004136;28;19925;-61
2023/03/21 04:51:02;;;;;;;;;;;;;;;;;;5003403;28;20402;-61
2023/03/21 04:53:37;;;;;;;;;;;;;;;;;;5003678;28;19930;-61
2023/03/21 04:56:09;;;;;;;;;;;;;;;;;;5000354;28;19988;-61
2023/03/21 04:58:40;;;;;;;;;;;;;;;;;;5001589;28;20127;-61
2023/03/21 05:01:06;;;;;;;;;;;;;;;;;;5002274;28;19930;-61
2023/03/21 05:03:33;;;;;;;;;;;;;;;;;;5003701;28;19932;-61
2023/03/21 05:05:59;;;;;;;;;;;;;;;;;;5003756;28;19926;-61
2023/03/21 05:08:25;;;;;;;;;;;;;;;;;;5001540;28;19932;-61
2023/03/21 05:10:51;;;;;;;;;;;;;;;;;;5003800;28;19930;-61
2023/03/21 05:13:17;;;;;;;;;;;;;;;;;;5003331;28;20450;-61
2023/03/21 05:15:43;;;;;;;;;;;;;;;;;;5003224;28;19971;-61
2023/03/21 05:18:10;;;;;;;;;;;;;;;;;;5002660;28;19926;-61
2023/03/21 05:20:36;;;;;;;;;;;;;;;;;;5003296;28;19933;-60
2023/03/21 05:23:02;;;;;;;;;;;;;;;;;;5002864;28;19933;-60
2023/03/21 05:25:33;;;;;;;;;;;;;;;;;;5001837;28;19929;-60
2023/03/21 05:28:00;;;;;;;;;;;;;;;;;;5003010;28;19933;-60
2023/03/21 05:30:26;;;;;;;;;;;;;;;;;;5001487;28;19937;-60
2023/03/21 05:32:52;;;;;;;;;;;;;;;;;;4998378;28;20284;-60
2023/03/21 05:35:19;;;;;;;;;;;;;;;;;;5001853;28;19925;-60
2023/03/21 05:37:45;;;;;;;;;;;;;;;;;;5001988;28;20018;-60
2023/03/21 05:40:11;;;;;;;;;;;;;;;;;;5002289;28;20004;-60
2023/03/21 05:42:37;;;;;;;;;;;;;;;;;;5002996;28;19926;-61
2023/03/21 05:45:03;;;;;;;;;;;;;;;;;;5002711;28;20292;-60
2023/03/21 05:47:29;;;;;;;;;;;;;;;;;;5003470;28;19931;-60
2023/03/21 05:49:55;;;;;;;;;;;;;;;;;;5001577;28;20422;-59
2023/03/21 05:52:21;;;;;;;;;;;;;;;;;;5000537;28;19932;-60
2023/03/21 05:54:47;;;;;;;;;;;;;;;;;;5001545;28;20453;-60
2023/03/21 05:57:18;;;;;;;;;;;;;;;;;;5001424;28;20070;-61
2023/03/21 05:59:50;;;;;;;;;;;;;;;;;;5001830;28;20425;-60
2023/03/21 06:02:20;;;;;;;;;;;;;;;;;;4998796;28;19926;-60
2023/03/21 06:04:50;;;;;;;;;;;;;;;;;;5000393;28;19930;-59
2023/03/21 06:07:16;;;;;;;;;;;;;;;;;;5002076;28;20024;-60
2023/03/21 06:09:42;;;;;;;;;;;;;;;;;;5001465;28;20013;-60
2023/03/21 06:12:08;;;;;;;;;;;;;;;;;;4999015;28;19930;-60
2023/03/21 06:14:34;;;;;;;;;;;;;;;;;;5004997;28;19933;-58
2023/03/21 06:17:00;;;;;;;;;;;;;;;;;;5004511;28;20428;-60
2023/03/21 06:19:26;;;;;;;;;;;;;;;;;;5002527;28;19972;-59
2023/03/21 06:21:52;;;;;;;;;;;;;;;;;;5005042;28;20279;-59
2023/03/21 06:24:18;;;;;;;;;;;;;;;;;;5003789;28;20407;-59
2023/03/21 06:26:45;;;;;;;;;;;;;;;;;;5005135;28;19994;-60
2023/03/21 06:29:11;;;;;;;;;;;;;;;;;;5004497;28;19929;-60
2023/03/21 06:31:37;;;;;;;;;;;;;;;;;;5004730;28;19980;-60
2023/03/21 06:34:03;;;;;;;;;;;;;;;;;;5005459;28;19984;-59
2023/03/21 06:36:29;;;;;;;;;;;;;;;;;;5005495;28;19976;-60
2023/03/21 06:38:55;;;;;;;;;;;;;;;;;;5004395;28;20375;-60
2023/03/21 06:41:21;;;;;;;;;;;;;;;;;;5005042;28;20066;-59
2023/03/21 06:43:47;;;;;;;;;;;;;;;;;;5004874;28;19925;-59
2023/03/21 06:46:13;;;;;;;;;;;;;;;;;;5004636;28;19955;-60
2023/03/21 06:48:43;;;;;;;;;;;;;;;;;;5004672;28;19925;-60
2023/03/21 06:51:09;;;;;;;;;;;;;;;;;;5004485;28;19972;-60
2023/03/21 06:53:35;;;;;;;;;;;;;;;;;;5003933;28;20326;-60
2023/03/21 06:56:01;;;;;;;;;;;;;;;;;;5004880;28;20003;-59
2023/03/21 06:58:27;;;;;;;;;;;;;;;;;;5004557;28;19957;-60
2023/03/21 07:00:53;;;;;;;;;;;;;;;;;;4995354;28;19933;-59
2023/03/21 07:03:19;;;;;;;;;;;;;;;;;;5004167;28;19929;-59
2023/03/21 07:05:45;;;;;;;;;;;;;;;;;;5004512;28;19926;-59
2023/03/21 07:08:12;;;;;;;;;;;;;;;;;;4990542;28;19937;-61
2023/03/21 07:10:39;;;;;;;;;;;;;;;;;;5003944;28;20327;-61
2023/03/21 07:13:05;;;;;;;;;;;;;;;;;;5003353;28;19926;-61
2023/03/21 07:15:32;;;;;;;;;;;;;;;;;;5004404;28;19929;-61
2023/03/21 07:17:58;;;;;;;;;;;;;;;;;;5003186;28;20336;-61
2023/03/21 07:20:25;;;;;;;;;;;;;;;;;;5003935;28;19940;-61
2023/03/21 07:22:51;;;;;;;;;;;;;;;;;;5002219;28;19926;-61
2023/03/21 07:25:18;;;;;;;;;;;;;;;;;;5004093;28;19947;-60
2023/03/21 07:27:45;;;;;;;;;;;;;;;;;;5004214;28;19933;-60
2023/03/21 07:30:11;;;;;;;;;;;;;;;;;;5004915;28;19930;-60
2023/03/21 07:32:39;;;;;;;;;;;;;;;;;;5007335;28;19925;-61
2023/03/21 07:35:05;;;;;;;;;;;;;;;;;;5006637;28;20438;-61
2023/03/21 07:37:31;;;;;;;;;;;;;;;;;;5006498;28;19995;-61
2023/03/21 07:39:57;;;;;;;;;;;;;;;;;;5007728;28;19921;-61
2023/03/21 07:42:24;;;;;;;;;;;;;;;;;;5007692;28;20012;-62
2023/03/21 07:44:51;;;;;;;;;;;;;;;;;;5008621;28;19926;-61
2023/03/21 07:47:17;;;;;;;;;;;;;;;;;;5007581;28;19926;-61
2023/03/21 07:49:43;;;;;;;;;;;;;;;;;;5003394;28;19933;-62
2023/03/21 07:52:09;;;;;;;;;;;;;;;;;;4998787;28;19929;-61
2023/03/21 07:54:35;;;;;;;;;;;;;;;;;;5000273;28;20067;-62
2023/03/21 07:57:03;;;;;;;;;;;;;;;;;;5007705;28;19948;-61
2023/03/21 07:59:29;;;;;;;;;;;;;;;;;;5008142;28;19987;-61
2023/03/21 08:01:55;;;;;;;;;;;;;;;;;;5007479;28;19926;-61
2023/03/21 08:04:21;;;;;;;;;;;;;;;;;;5007465;28;19933;-61
2023/03/21 08:06:47;;;;;;;;;;;;;;;;;;5007284;28;19926;-62
2023/03/21 08:09:13;;;;;;;;;;;;;;;;;;5005962;28;19960;-61
2023/03/21 08:11:39;;;;;;;;;;;;;;;;;;5007417;28;19929;-61
2023/03/21 08:14:05;;;;;;;;;;;;;;;;;;5007119;28;20423;-62
2023/03/21 08:16:31;;;;;;;;;;;;;;;;;;5007337;28;20398;-61
2023/03/21 08:18:57;;;;;;;;;;;;;;;;;;5007328;28;20012;-61
2023/03/21 08:21:24;;;;;;;;;;;;;;;;;;4987882;28;19973;-61
2023/03/21 08:23:51;;;;;;;;;;;;;;;;;;4998453;28;19983;-61
2023/03/21 08:26:18;;;;;;;;;;;;;;;;;;5004518;28;19933;-62
2023/03/21 08:28:44;;;;;;;;;;;;;;;;;;5004191;28;19929;-62
2023/03/21 08:31:10;;;;;;;;;;;;;;;;;;5004262;28;19929;-61
2023/03/21 08:33:36;;;;;;;;;;;;;;;;;;5004597;28;20032;-60
2023/03/21 08:36:02;;;;;;;;;;;;;;;;;;5002589;28;19936;-62
2023/03/21 08:38:28;;;;;;;;;;;;;;;;;;5003066;28;19975;-63
2023/03/21 08:40:55;;;;;;;;;;;;;;;;;;4990135;28;19926;-59
2023/03/21 08:43:21;;;;;;;;;;;;;;;;;;5002409;28;19925;-62
2023/03/21 08:45:48;;;;;;;;;;;;;;;;;;5003658;28;19999;-63
2023/03/21 08:48:14;;;;;;;;;;;;;;;;;;5003587;28;20403;-64
2023/03/21 08:50:40;;;;;;;;;;;;;;;;;;5004152;28;19930;-63
2023/03/21 08:53:06;;;;;;;;;;;;;;;;;;5002997;28;20055;-63
2023/03/21 08:55:33;;;;;;;;;;;;;;;;;;5004535;28;20008;-62
2023/03/21 08:57:59;;;;;;;;;;;;;;;;;;5004707;28;19930;-63
2023/03/21 09:00:26;;;;;;;;;;;;;;;;;;5002766;28;19975;-63
2023/03/21 09:02:53;;;;;;;;;;;;;;;;;;5001980;28;20384;-64
2023/03/21 09:05:19;;;;;;;;;;;;;;;;;;5003528;28;19930;-63
2023/03/21 09:07:45;;;;;;;;;;;;;;;;;;5002066;28;19979;-63
2023/03/21 09:10:11;;;;;;;;;;;;;;;;;;5002978;28;19969;-63
2023/03/21 09:12:37;;;;;;;;;;;;;;;;;;5003587;28;19990;-62
2023/03/21 09:15:03;;;;;;;;;;;;;;;;;;5004222;28;20493;-63
2023/03/21 09:17:30;;;;;;;;;;;;;;;;;;5003852;28;19921;-62
2023/03/21 09:19:58;;;;;;;;;;;;;;;;;;5001850;28;19934;-61
2023/03/21 09:22:24;;;;;;;;;;;;;;;;;;5003078;28;20670;-62
2023/03/21 09:24:51;;;;;;;;;;;;;;;;;;5003608;28;19933;-62
2023/03/21 09:27:21;;;;;;;;;;;;;;;;;;5003697;28;20280;-62
2023/03/21 09:29:47;;;;;;;;;;;;;;;;;;5002932;28;20302;-63
2023/03/21 09:32:14;;;;;;;;;;;;;;;;;;4995976;28;19976;-63
2023/03/21 09:34:40;;;;;;;;;;;;;;;;;;4997007;28;19963;-63
2023/03/21 09:37:08;;;;;;;;;;;;;;;;;;5002814;28;19930;-62
2023/03/21 09:39:35;;;;;;;;;;;;;;;;;;5003793;28;19933;-63
2023/03/21 09:42:01;;;;;;;;;;;;;;;;;;5004003;28;19925;-61
2023/03/21 09:44:27;;;;;;;;;;;;;;;;;;5003183;28;19976;-61
2023/03/21 09:46:53;;;;;;;;;;;;;;;;;;5004013;28;19984;-61
2023/03/21 09:49:19;;;;;;;;;;;;;;;;;;5002816;28;20393;-61
2023/03/21 09:51:47;;;;;;;;;;;;;;;;;;5003434;28;19925;-62
2023/03/21 09:54:14;;;;;;;;;;;;;;;;;;5001968;28;20015;-62
2023/03/21 09:56:40;;;;;;;;;;;;;;;;;;5002924;28;20317;-62
2023/03/21 09:59:07;;;;;;;;;;;;;;;;;;5002938;28;19925;-62
2023/03/21 10:01:40;;;;;;;;;;;;;;;;;;5003424;28;19926;-61
2023/03/21 10:04:06;;;;;;;;;;;;;;;;;;5001225;28;19947;-62
2023/03/21 10:06:33;;;;;;;;;;;;;;;;;;5002789;28;20409;-62
2023/03/21 10:09:00;;;;;;;;;;;;;;;;;;5002527;28;19936;-62
2023/03/21 10:11:26;;;;;;;;;;;;;;;;;;5002709;28;19936;-62
2023/03/21 10:13:52;;;;;;;;;;;;;;;;;;5003443;28;20427;-62
2023/03/21 10:16:18;;;;;;;;;;;;;;;;;;5002141;28;19925;-61
2023/03/21 10:18:45;;;;;;;;;;;;;;;;;;5002603;28;19936;-62
2023/03/21 10:21:15;;;;;;;;;;;;;;;;;;5002116;28;20387;-62
2023/03/21 10:23:41;;;;;;;;;;;;;;;;;;5002163;28;19936;-62
2023/03/21 10:26:07;;;;;;;;;;;;;;;;;;5002015;28;19934;-62
2023/03/21 10:28:33;;;;;;;;;;;;;;;;;;5002825;28;19935;-62
2023/03/21 10:30:59;;;;;;;;;;;;;;;;;;5002875;28;20003;-62
2023/03/21 10:33:25;;;;;;;;;;;;;;;;;;5002072;28;19936;-61
2023/03/21 10:35:51;;;;;;;;;;;;;;;;;;5002741;28;19936;-62
2023/03/21 10:38:17;;;;;;;;;;;;;;;;;;5001472;28;20529;-62
2023/03/21 10:40:43;;;;;;;;;;;;;;;;;;5002000;28;19925;-62
2023/03/21 10:43:09;;;;;;;;;;;;;;;;;;5002053;28;20035;-61
2023/03/21 10:45:35;;;;;;;;;;;;;;;;;;5001695;28;19936;-62
2023/03/21 10:48:01;;;;;;;;;;;;;;;;;;5001900;28;19964;-62
2023/03/21 10:50:27;;;;;;;;;;;;;;;;;;5001761;28;20330;-61
2023/03/21 10:52:53;;;;;;;;;;;;;;;;;;5001901;28;20042;-61
2023/03/21 10:55:20;;;;;;;;;;;;;;;;;;5001497;28;19937;-61
2023/03/21 10:57:46;;;;;;;;;;;;;;;;;;5002349;28;19930;-60
2023/03/21 11:00:16;;;;;;;;;;;;;;;;;;5002007;28;19940;-62
2023/03/21 11:02:42;;;;;;;;;;;;;;;;;;5002453;28;19933;-61
2023/03/21 11:05:08;;;;;;;;;;;;;;;;;;5004427;28;19929;-62
2023/03/21 11:07:35;;;;;;;;;;;;;;;;;;5004736;28;20387;-63
2023/03/21 11:10:01;;;;;;;;;;;;;;;;;;5006657;28;20383;-63
2023/03/21 11:12:27;;;;;;;;;;;;;;;;;;5006421;28;19979;-63
2023/03/21 11:14:53;;;;;;;;;;;;;;;;;;5006386;28;20048;-63
2023/03/21 11:17:19;;;;;;;;;;;;;;;;;;5004688;28;20280;-63
2023/03/21 11:19:45;;;;;;;;;;;;;;;;;;5005800;28;19936;-63
2023/03/21 11:22:11;;;;;;;;;;;;;;;;;;5005661;28;19934;-63
2023/03/21 11:24:37;;;;;;;;;;;;;;;;;;5005957;28;20387;-63
2023/03/21 11:27:04;;;;;;;;;;;;;;;;;;5006752;28;20016;-60
2023/03/21 11:29:30;;;;;;;;;;;;;;;;;;5005170;28;19959;-63
2023/03/21 11:31:57;;;;;;;;;;;;;;;;;;5005428;28;19933;-63
2023/03/21 11:34:23;;;;;;;;;;;;;;;;;;5005942;28;19929;-63
2023/03/21 11:36:49;;;;;;;;;;;;;;;;;;5005115;28;19930;-63
2023/03/21 11:39:15;;;;;;;;;;;;;;;;;;5005653;28;19936;-63
2023/03/21 11:41:42;;;;;;;;;;;;;;;;;;5005809;28;19929;-63
2023/03/21 11:44:08;;;;;;;;;;;;;;;;;;5004619;28;19925;-63
2023/03/21 11:46:34;;;;;;;;;;;;;;;;;;5006074;28;19948;-63
2023/03/21 11:49:00;;;;;;;;;;;;;;;;;;5004949;28;20004;-62
2023/03/21 11:51:26;;;;;;;;;;;;;;;;;;5005107;28;19929;-63
2023/03/21 11:53:52;;;;;;;;;;;;;;;;;;5002562;28;20337;-62
2023/03/21 11:56:18;;;;;;;;;;;;;;;;;;5003764;28;19925;-62
2023/03/21 11:58:44;;;;;;;;;;;;;;;;;;4991737;28;19936;-62
2023/03/21 12:01:11;;;;;;;;;;;;;;;;;;5005255;28;19932;-63
2023/03/21 12:03:37;;;;;;;;;;;;;;;;;;5005351;28;19999;-62
2023/03/21 12:06:03;;;;;;;;;;;;;;;;;;5004238;28;20410;-63
2023/03/21 12:08:30;;;;;;;;;;;;;;;;;;5004808;28;20490;-63
2023/03/21 12:10:56;;;;;;;;;;;;;;;;;;5004476;28;19985;-62
2023/03/21 12:13:22;;;;;;;;;;;;;;;;;;5003395;28;20029;-62
2023/03/21 12:15:48;;;;;;;;;;;;;;;;;;5004703;28;19956;-62
2023/03/21 12:18:14;;;;;;;;;;;;;;;;;;5004064;28;19925;-62
2023/03/21 12:20:40;;;;;;;;;;;;;;;;;;5005022;28;20298;-62
2023/03/21 12:23:06;;;;;;;;;;;;;;;;;;5004135;28;19942;-62
2023/03/21 12:25:33;;;;;;;;;;;;;;;;;;5005000;28;20008;-62
2023/03/21 12:27:59;;;;;;;;;;;;;;;;;;5005119;28;19930;-62
2023/03/21 12:30:25;;;;;;;;;;;;;;;;;;5004860;28;19976;-63
2023/03/21 12:32:51;;;;;;;;;;;;;;;;;;5004459;28;19930;-62
2023/03/21 12:35:17;;;;;;;;;;;;;;;;;;5004545;28;19987;-62
2023/03/21 12:37:43;;;;;;;;;;;;;;;;;;5004154;28;20383;-61
2023/03/21 12:40:09;;;;;;;;;;;;;;;;;;5004081;28;19926;-63
2023/03/21 12:42:35;;;;;;;;;;;;;;;;;;5004741;28;19925;-63
2023/03/21 12:45:01;;;;;;;;;;;;;;;;;;5004847;28;20391;-62
2023/03/21 12:47:27;;;;;;;;;;;;;;;;;;5004496;28;19956;-62
2023/03/21 12:49:53;;;;;;;;;;;;;;;;;;5004593;28;19929;-62
2023/03/21 12:52:19;;;;;;;;;;;;;;;;;;5002366;28;19980;-62
2023/03/21 12:54:45;;;;;;;;;;;;;;;;;;5004424;28;19925;-62
2023/03/21 12:57:11;;;;;;;;;;;;;;;;;;5004125;28;19932;-62
2023/03/21 12:59:37;;;;;;;;;;;;;;;;;;5004852;28;20637;-62
2023/03/21 13:02:03;;;;;;;;;;;;;;;;;;5003228;28;19991;-63
2023/03/21 13:04:29;;;;;;;;;;;;;;;;;;5004568;28;19937;-61
2023/03/21 13:06:55;;;;;;;;;;;;;;;;;;5003710;28;20716;-62
2023/03/21 13:09:21;;;;;;;;;;;;;;;;;;5003640;28;19929;-61
2023/03/21 13:11:47;;;;;;;;;;;;;;;;;;5003675;28;20423;-60
2023/03/21 13:14:13;;;;;;;;;;;;;;;;;;5003903;28;19930;-61
2023/03/21 13:16:39;;;;;;;;;;;;;;;;;;5003838;28;20012;-60
2023/03/21 13:19:05;;;;;;;;;;;;;;;;;;5003588;28;20680;-61
2023/03/21 13:21:31;;;;;;;;;;;;;;;;;;4994498;28;19926;-60
2023/03/21 13:23:58;;;;;;;;;;;;;;;;;;5004157;28;19929;-61
2023/03/21 13:26:25;;;;;;;;;;;;;;;;;;5003780;28;20023;-61
2023/03/21 13:28:51;;;;;;;;;;;;;;;;;;5002708;28;19932;-66
2023/03/21 13:31:17;;;;;;;;;;;;;;;;;;5003237;28;19933;-63
2023/03/21 13:33:43;;;;;;;;;;;;;;;;;;5003450;28;19933;-63
2023/03/21 13:36:09;;;;;;;;;;;;;;;;;;5003447;28;20013;-63
2023/03/21 13:38:38;;;;;;;;;;;;;;;;;;5002892;28;20020;-63
2023/03/21 13:41:04;;;;;;;;;;;;;;;;;;5003886;28;19952;-63
2023/03/21 13:43:30;;;;;;;;;;;;;;;;;;5004130;28;19936;-63
2023/03/21 13:45:56;;;;;;;;;;;;;;;;;;5003424;28;19929;-63
2023/03/21 13:48:22;;;;;;;;;;;;;;;;;;5003344;28;19977;-63
2023/03/21 13:50:48;;;;;;;;;;;;;;;;;;5003065;28;19931;-63
2023/03/21 13:53:14;;;;;;;;;;;;;;;;;;5001777;28;19987;-63
2023/03/21 13:55:41;;;;;;;;;;;;;;;;;;5003818;28;19935;-63
2023/03/21 13:58:06;;;;;;;;;;;;;;;;;;5002843;28;20672;-62
2023/03/21 14:00:33;;;;;;;;;;;;;;;;;;5003402;28;19930;-63
2023/03/21 14:03:00;;;;;;;;;;;;;;;;;;5003116;28;19936;-63
2023/03/21 14:05:26;;;;;;;;;;;;;;;;;;5003237;28;20311;-63
2023/03/21 14:07:52;;;;;;;;;;;;;;;;;;5002233;28;20648;-62
2023/03/21 14:10:18;;;;;;;;;;;;;;;;;;5002709;28;20462;-64
2023/03/21 14:12:44;;;;;;;;;;;;;;;;;;5002610;28;20070;-63
2023/03/21 14:15:10;;;;;;;;;;;;;;;;;;5002705;28;19926;-63
2023/03/21 14:17:36;;;;;;;;;;;;;;;;;;5002574;28;19936;-63
2023/03/21 14:20:09;;;;;;;;;;;;;;;;;;5002805;28;19929;-64
2023/03/21 14:22:35;;;;;;;;;;;;;;;;;;5002434;28;20303;-63
2023/03/21 14:25:01;;;;;;;;;;;;;;;;;;5003114;28;19929;-63
2023/03/21 14:27:27;;;;;;;;;;;;;;;;;;5002814;28;19933;-63
2023/03/21 14:29:53;;;;;;;;;;;;;;;;;;5002147;28;19933;-65
2023/03/21 14:32:19;;;;;;;;;;;;;;;;;;5001546;28;19948;-64
2023/03/21 14:34:45;;;;;;;;;;;;;;;;;;5002384;28;19976;-63
2023/03/21 14:37:12;;;;;;;;;;;;;;;;;;5001819;28;20419;-64
2023/03/21 14:39:38;;;;;;;;;;;;;;;;;;5001045;28;19933;-63
2023/03/21 14:42:04;;;;;;;;;;;;;;;;;;5002056;28;19979;-59
2023/03/21 14:44:30;;;;;;;;;;;;;;;;;;5000722;28;19925;-63
2023/03/21 14:46:56;;;;;;;;;;;;;;;;;;4999352;28;20410;-62
2023/03/21 14:49:22;;;;;;;;;;;;;;;;;;4987963;28;19926;-62
2023/03/21 14:51:48;;;;;;;;;;;;;;;;;;4997949;28;19925;-63
2023/03/21 14:54:16;;;;;;;;;;;;;;;;;;5004427;28;19932;-63
2023/03/21 14:56:43;;;;;;;;;;;;;;;;;;5004239;28;20276;-63
2023/03/21 14:59:09;;;;;;;;;;;;;;;;;;5004351;28;19933;-62
2023/03/21 15:01:35;;;;;;;;;;;;;;;;;;5004400;28;19926;-63
2023/03/21 15:04:01;;;;;;;;;;;;;;;;;;5004675;28;19926;-63
2023/03/21 15:06:27;;;;;;;;;;;;;;;;;;5003679;28;20016;-63
2023/03/21 15:08:53;;;;;;;;;;;;;;;;;;5004117;28;20573;-62
2023/03/21 15:11:19;;;;;;;;;;;;;;;;;;5003870;28;19925;-63
2023/03/21 15:13:45;;;;;;;;;;;;;;;;;;5004431;28;20621;-63
2023/03/21 15:16:13;;;;;;;;;;;;;;;;;;5004044;28;19972;-63
2023/03/21 15:18:39;;;;;;;;;;;;;;;;;;5003818;28;19925;-63
2023/03/21 15:21:05;;;;;;;;;;;;;;;;;;5003186;28;20075;-59
2023/03/21 15:23:31;;;;;;;;;;;;;;;;;;5004064;28;20012;-63
2023/03/21 15:25:57;;;;;;;;;;;;;;;;;;5004032;28;19929;-62
2023/03/21 15:28:23;;;;;;;;;;;;;;;;;;5003738;28;19932;-63
2023/03/21 15:30:49;;;;;;;;;;;;;;;;;;5003773;28;19947;-63
2023/03/21 15:33:15;;;;;;;;;;;;;;;;;;5003834;28;20319;-63
2023/03/21 15:35:42;;;;;;;;;;;;;;;;;;5004439;28;19933;-63
2023/03/21 15:38:08;;;;;;;;;;;;;;;;;;5002827;28;19973;-62
2023/03/21 15:40:34;;;;;;;;;;;;;;;;;;5004306;28;20049;-58
2023/03/21 15:43:00;;;;;;;;;;;;;;;;;;5004386;28;19926;-63
2023/03/21 15:45:26;;;;;;;;;;;;;;;;;;5003651;28;20491;-60
2023/03/21 15:47:52;;;;;;;;;;;;;;;;;;5004083;28;20363;-63
2023/03/21 15:50:18;;;;;;;;;;;;;;;;;;5003016;28;20300;-63
2023/03/21 15:52:44;;;;;;;;;;;;;;;;;;5006243;28;20555;-64
2023/03/21 15:55:10;;;;;;;;;;;;;;;;;;5007309;28;19933;-63
2023/03/21 15:57:36;;;;;;;;;;;;;;;;;;5007585;28;19930;-61
2023/03/21 16:00:05;;;;;;;;;;;;;;;;;;5007900;28;19932;-63
2023/03/21 16:02:31;;;;;;;;;;;;;;;;;;5006706;28;19925;-63
2023/03/21 16:04:57;;;;;;;;;;;;;;;;;;5007333;28;19939;-63
2023/03/21 16:07:23;;;;;;;;;;;;;;;;;;5001818;28;20335;-63
2023/03/21 16:09:49;;;;;;;;;;;;;;;;;;4997797;28;20390;-63
2023/03/21 16:12:15;;;;;;;;;;;;;;;;;;5004280;28;20028;-63
2023/03/21 16:14:41;;;;;;;;;;;;;;;;;;5003425;28;20322;-63
2023/03/21 16:17:07;;;;;;;;;;;;;;;;;;5003624;28;19925;-64
2023/03/21 16:19:33;;;;;;;;;;;;;;;;;;5005069;28;20299;-63
2023/03/21 16:21:59;;;;;;;;;;;;;;;;;;5000290;28;20723;-64
2023/03/21 16:24:25;;;;;;;;;;;;;;;;;;5003849;28;19929;-63
2023/03/21 16:26:52;;;;;;;;;;;;;;;;;;5004199;28;19973;-64
2023/03/21 16:29:18;;;;;;;;;;;;;;;;;;5000135;28;20002;-62
2023/03/21 16:31:44;;;;;;;;;;;;;;;;;;5004822;28;20021;-63
2023/03/21 16:34:11;;;;;;;;;;;;;;;;;;5003726;28;19926;-62
2023/03/21 16:36:37;;;;;;;;;;;;;;;;;;5002755;28;19969;-63
2023/03/21 16:39:04;;;;;;;;;;;;;;;;;;5002677;28;20410;-62
2023/03/21 16:41:30;;;;;;;;;;;;;;;;;;5004027;28;19980;-63
2023/03/21 16:43:56;;;;;;;;;;;;;;;;;;5002487;28;19929;-63